Time;durP1;ratioP1;P1;durP2;ratioP2;P2;SDS_P1;SDS_P2;PMS_P1;PMS_P2;Temp;Humidity;BMP_temperature;BMP_pressure;BME280_temperature;BME280_humidity;BME280_pressure;Samples;Min_cycle;Max_cycle;Signal;HPM_P1;HPM_P2
2023/10/25 00:00:00;;;;;;;11.85;6.97;;;10.10;99.90;;;;;;5064459;28;38708;-76
2023/10/25 00:02:27;;;;;;;12.23;6.53;;;10.10;99.90;;;;;;5063496;28;38776;-75
2023/10/25 00:04:54;;;;;;;8.77;7.07;;;10.00;99.90;;;;;;5057465;28;37327;-75
2023/10/25 00:07:21;;;;;;;9.30;6.68;;;10.00;99.90;;;;;;5066677;28;37086;-77
2023/10/25 00:09:47;;;;;;;12.45;7.07;;;10.00;99.90;;;;;;5060276;28;37732;-77
2023/10/25 00:12:13;;;;;;;11.75;6.53;;;9.90;99.90;;;;;;5062948;28;38055;-77
2023/10/25 00:14:41;;;;;;;10.27;6.70;;;9.90;99.90;;;;;;5067261;28;37628;-76
2023/10/25 00:17:07;;;;;;;12.07;6.20;;;9.90;99.90;;;;;;5067417;28;37348;-75
2023/10/25 00:19:33;;;;;;;8.80;5.97;;;9.80;99.90;;;;;;5067072;28;38869;-76
2023/10/25 00:21:59;;;;;;;14.70;5.97;;;9.80;99.90;;;;;;5071249;28;38332;-76
2023/10/25 00:24:26;;;;;;;12.53;5.70;;;9.80;99.90;;;;;;5066288;28;39397;-76
2023/10/25 00:26:52;;;;;;;11.03;5.77;;;9.90;99.90;;;;;;5065173;28;37281;-75
2023/10/25 00:29:18;;;;;;;14.13;6.40;;;9.90;99.90;;;;;;5067555;28;39222;-75
2023/10/25 00:31:45;;;;;;;10.07;6.03;;;9.90;99.90;;;;;;5063422;28;37463;-74
2023/10/25 00:34:12;;;;;;;11.77;6.80;;;10.10;99.90;;;;;;5063086;28;38721;-76
2023/10/25 00:36:38;;;;;;;13.70;7.13;;;10.10;99.90;;;;;;5060283;28;37301;-75
2023/10/25 00:39:05;;;;;;;15.38;7.18;;;10.20;99.90;;;;;;5059169;28;37580;-75
2023/10/25 00:41:31;;;;;;;14.50;7.23;;;10.20;99.90;;;;;;5065948;28;39474;-75
2023/10/25 00:43:57;;;;;;;20.20;7.38;;;10.20;99.90;;;;;;5062026;28;38506;-76
2023/10/25 00:46:26;;;;;;;13.45;6.97;;;10.20;99.90;;;;;;5061105;28;38138;-75
2023/10/25 00:48:57;;;;;;;22.13;9.10;;;10.30;99.90;;;;;;5063973;28;38861;-75
2023/10/25 00:51:49;;;;;;;14.68;7.55;;;10.30;99.90;;;;;;5059491;28;39032;-76
2023/10/25 00:54:16;;;;;;;14.40;6.07;;;10.30;99.90;;;;;;5072488;28;38972;-76
2023/10/25 00:56:42;;;;;;;11.95;7.35;;;10.30;99.90;;;;;;5064573;28;38181;-76
2023/10/25 00:59:11;;;;;;;15.73;6.63;;;10.30;99.90;;;;;;5067648;28;40019;-75
2023/10/25 01:04:10;;;;;;;14.35;7.32;;;10.30;99.90;;;;;;5004134;28;38327;-75
2023/10/25 01:06:36;;;;;;;12.83;5.73;;;10.30;99.90;;;;;;5045191;28;36228;-74
2023/10/25 01:09:03;;;;;;;12.77;5.90;;;10.20;99.90;;;;;;5037423;28;39292;-75
2023/10/25 01:11:30;;;;;;;14.77;6.27;;;10.10;99.90;;;;;;5043611;28;37650;-75
2023/10/25 01:13:56;;;;;;;15.47;6.40;;;10.10;99.90;;;;;;5046368;28;38320;-75
2023/10/25 01:16:22;;;;;;;12.03;5.83;;;10.10;99.90;;;;;;5039650;28;36867;-75
2023/10/25 01:18:49;;;;;;;11.23;6.20;;;10.20;99.90;;;;;;5047313;28;37642;-75
2023/10/25 01:21:15;;;;;;;11.87;6.03;;;10.20;99.90;;;;;;5047181;28;37739;-76
2023/10/25 01:23:42;;;;;;;10.13;5.77;;;10.10;99.90;;;;;;5044531;28;36434;-75
2023/10/25 01:26:08;;;;;;;18.40;6.40;;;10.10;99.90;;;;;;5048871;28;37357;-75
2023/10/25 01:28:34;;;;;;;17.37;6.13;;;10.00;99.90;;;;;;5045019;28;39373;-75
2023/10/25 01:31:01;;;;;;;14.30;6.17;;;10.10;99.90;;;;;;5048069;28;38754;-75
2023/10/25 01:33:29;;;;;;;12.97;5.73;;;10.10;99.90;;;;;;5042230;28;47029;-75
2023/10/25 01:35:55;;;;;;;15.50;5.80;;;10.10;99.90;;;;;;5049428;28;34358;-75
2023/10/25 01:38:21;;;;;;;11.00;5.67;;;10.20;99.90;;;;;;5048027;28;38580;-75
2023/10/25 01:40:48;;;;;;;12.97;5.80;;;10.20;99.90;;;;;;5045901;28;38154;-75
2023/10/25 01:43:14;;;;;;;10.27;5.40;;;10.20;99.90;;;;;;5045962;28;37567;-75
2023/10/25 01:45:40;;;;;;;12.27;5.37;;;10.20;99.90;;;;;;5050125;28;36108;-75
2023/10/25 01:48:06;;;;;;;14.57;5.67;;;10.20;99.90;;;;;;5043239;28;37876;-75
2023/10/25 01:50:32;;;;;;;10.60;4.57;;;10.10;99.90;;;;;;5049919;28;37993;-75
2023/10/25 01:52:58;;;;;;;12.27;5.43;;;10.00;99.90;;;;;;5055654;28;38115;-76
2023/10/25 01:55:24;;;;;;;12.97;5.03;;;10.00;99.90;;;;;;5047857;28;36859;-75
2023/10/25 01:57:51;;;;;;;10.90;5.10;;;10.00;99.90;;;;;;5049611;28;37778;-75
2023/10/25 02:00:17;;;;;;;10.87;5.13;;;10.00;99.90;;;;;;5049484;28;37450;-75
2023/10/25 02:02:44;;;;;;;12.10;5.63;;;10.00;99.90;;;;;;5044350;28;36736;-75
2023/10/25 02:05:10;;;;;;;8.83;5.50;;;10.10;99.90;;;;;;5048454;28;37147;-75
2023/10/25 02:07:36;;;;;;;10.30;5.77;;;10.00;99.90;;;;;;5050881;28;38858;-75
2023/10/25 02:10:03;;;;;;;10.60;6.10;;;10.00;99.90;;;;;;5049480;28;39270;-75
2023/10/25 02:12:29;;;;;;;14.47;5.80;;;10.00;99.90;;;;;;5045857;28;47803;-75
2023/10/25 02:14:55;;;;;;;14.37;6.00;;;10.00;99.90;;;;;;5042919;28;37404;-75
2023/10/25 02:17:22;;;;;;;10.10;5.67;;;10.00;99.90;;;;;;5047540;28;37403;-75
2023/10/25 02:19:48;;;;;;;11.53;5.93;;;10.00;99.90;;;;;;5046921;28;39131;-75
2023/10/25 02:22:14;;;;;;;12.03;5.93;;;10.00;99.90;;;;;;5045238;28;38920;-75
2023/10/25 02:24:40;;;;;;;12.67;6.20;;;10.00;99.90;;;;;;5044058;28;36129;-76
2023/10/25 02:27:06;;;;;;;14.43;6.10;;;10.00;99.90;;;;;;5049817;28;40134;-76
2023/10/25 02:29:32;;;;;;;13.00;5.90;;;9.90;99.90;;;;;;5044820;28;39094;-76
2023/10/25 02:31:58;;;;;;;9.00;5.83;;;9.80;99.90;;;;;;5053138;28;38418;-76
2023/10/25 02:34:25;;;;;;;9.03;6.10;;;9.80;99.90;;;;;;5048385;28;37875;-75
2023/10/25 02:36:51;;;;;;;7.60;5.70;;;9.80;99.90;;;;;;5047844;28;37054;-75
2023/10/25 02:39:17;;;;;;;16.00;6.33;;;9.80;99.90;;;;;;5048509;28;39137;-75
2023/10/25 02:41:43;;;;;;;9.63;5.77;;;9.80;99.90;;;;;;5049123;28;38369;-75
2023/10/25 02:44:10;;;;;;;9.18;7.38;;;9.80;99.90;;;;;;5040302;28;37966;-75
2023/10/25 02:46:36;;;;;;;11.63;7.03;;;9.80;99.90;;;;;;5039826;28;37513;-75
2023/10/25 02:49:02;;;;;;;13.10;7.70;;;9.70;99.90;;;;;;5044807;28;37848;-75
2023/10/25 02:51:28;;;;;;;16.75;8.77;;;9.70;99.90;;;;;;5042587;28;37258;-75
2023/10/25 02:53:54;;;;;;;10.95;8.27;;;9.70;99.90;;;;;;5047262;28;35827;-75
2023/10/25 02:56:21;;;;;;;12.50;9.37;;;9.70;99.90;;;;;;5044821;28;38912;-75
2023/10/25 02:58:47;;;;;;;14.57;9.47;;;9.70;99.90;;;;;;5049059;28;39435;-75
2023/10/25 03:01:25;;;;;;;14.70;9.03;;;9.80;99.90;;;;;;5045561;28;38482;-75
2023/10/25 03:03:51;;;;;;;11.97;8.60;;;9.80;99.90;;;;;;5044031;28;37241;-75
2023/10/25 03:06:18;;;;;;;16.40;9.40;;;9.70;99.90;;;;;;5044366;28;38329;-75
2023/10/25 03:08:44;;;;;;;12.63;8.73;;;9.70;99.90;;;;;;5041073;28;39718;-76
2023/10/25 03:11:10;;;;;;;19.03;10.67;;;9.70;99.90;;;;;;5042953;28;38437;-75
2023/10/25 03:13:37;;;;;;;13.30;8.13;;;9.70;99.90;;;;;;5047028;28;37311;-75
2023/10/25 03:16:04;;;;;;;14.23;8.90;;;9.70;99.90;;;;;;5039393;28;39144;-74
2023/10/25 03:18:32;;;;;;;12.50;9.33;;;9.80;99.90;;;;;;5042500;28;37820;-75
2023/10/25 03:21:03;;;;;;;11.53;8.27;;;9.70;99.90;;;;;;5042910;28;37836;-75
2023/10/25 03:23:30;;;;;;;15.53;9.43;;;9.60;99.90;;;;;;5040444;28;48670;-75
2023/10/25 03:26:03;;;;;;;12.67;9.40;;;9.60;99.90;;;;;;5047904;28;38938;-74
2023/10/25 03:28:29;;;;;;;15.27;9.13;;;9.50;99.90;;;;;;5045979;28;47319;-75
2023/10/25 03:30:55;;;;;;;11.00;9.00;;;9.50;99.90;;;;;;5051152;28;39435;-74
2023/10/25 03:33:21;;;;;;;16.63;9.37;;;9.50;99.90;;;;;;5043365;28;35875;-74
2023/10/25 03:35:51;;;;;;;14.20;9.33;;;9.40;99.90;;;;;;5045429;28;39912;-74
2023/10/25 03:38:17;;;;;;;16.03;8.87;;;9.50;99.90;;;;;;5048689;28;38357;-74
2023/10/25 03:40:44;;;;;;;14.17;10.63;;;9.50;99.90;;;;;;5046405;28;36620;-74
2023/10/25 03:43:10;;;;;;;14.70;10.03;;;9.50;99.90;;;;;;5046915;28;35958;-75
2023/10/25 03:45:36;;;;;;;14.43;9.77;;;9.50;99.90;;;;;;5050103;28;38936;-75
2023/10/25 03:48:02;;;;;;;12.23;8.40;;;9.50;99.90;;;;;;5053957;28;38832;-75
2023/10/25 03:50:29;;;;;;;12.40;8.63;;;9.60;99.90;;;;;;5050029;28;39603;-75
2023/10/25 03:52:55;;;;;;;12.83;9.13;;;9.60;99.90;;;;;;5046251;28;37576;-75
2023/10/25 03:55:21;;;;;;;12.03;8.50;;;9.60;99.90;;;;;;5046816;28;38268;-76
2023/10/25 03:57:48;;;;;;;10.83;8.30;;;9.60;99.90;;;;;;5048328;28;39001;-76
2023/10/25 04:00:14;;;;;;;10.50;8.40;;;9.60;99.90;;;;;;5055747;28;38156;-76
2023/10/25 04:02:40;;;;;;;9.87;8.00;;;9.70;99.90;;;;;;5059058;28;35877;-75
2023/10/25 04:05:06;;;;;;;15.03;8.37;;;9.70;99.90;;;;;;5062489;28;37849;-75
2023/10/25 04:07:32;;;;;;;11.67;8.70;;;9.70;99.90;;;;;;5056734;28;39095;-76
2023/10/25 04:09:59;;;;;;;13.00;8.63;;;9.70;99.90;;;;;;5053005;28;38077;-76
2023/10/25 04:12:27;;;;;;;13.67;8.60;;;9.70;99.90;;;;;;5050320;28;37280;-76
2023/10/25 04:14:53;;;;;;;11.27;7.60;;;9.70;99.90;;;;;;5050407;28;39077;-75
2023/10/25 04:17:19;;;;;;;14.30;8.43;;;9.70;99.90;;;;;;5046773;28;38228;-75
2023/10/25 04:19:45;;;;;;;16.53;10.30;;;9.80;99.90;;;;;;5043672;28;38274;-75
2023/10/25 04:22:13;;;;;;;17.17;9.23;;;9.80;99.90;;;;;;5048081;28;38112;-76
2023/10/25 04:24:40;;;;;;;10.47;8.10;;;9.80;99.90;;;;;;5050633;28;38985;-76
2023/10/25 04:27:06;;;;;;;12.83;9.20;;;9.90;99.90;;;;;;5044605;28;37601;-76
2023/10/25 04:29:32;;;;;;;15.80;8.37;;;9.90;99.90;;;;;;5047052;28;37540;-76
2023/10/25 04:31:58;;;;;;;15.13;8.37;;;9.90;99.90;;;;;;5068003;28;36020;-76
2023/10/25 04:34:24;;;;;;;12.47;8.13;;;9.90;99.90;;;;;;5049407;28;40024;-76
2023/10/25 04:36:50;;;;;;;12.50;7.03;;;9.90;99.90;;;;;;5074886;28;37782;-75
2023/10/25 04:39:16;;;;;;;10.30;7.73;;;9.90;99.90;;;;;;5053554;28;37439;-76
2023/10/25 04:41:42;;;;;;;14.93;9.57;;;10.00;99.90;;;;;;5050856;28;37121;-76
2023/10/25 04:44:08;;;;;;;14.77;8.40;;;10.00;99.90;;;;;;5053138;28;40034;-75
2023/10/25 04:46:35;;;;;;;13.70;8.17;;;10.00;99.90;;;;;;5053674;28;38122;-75
2023/10/25 04:49:01;;;;;;;14.87;8.43;;;10.00;99.90;;;;;;5051607;28;38629;-76
2023/10/25 04:51:27;;;;;;;12.63;8.40;;;10.00;99.90;;;;;;5049045;28;49244;-76
2023/10/25 04:53:53;;;;;;;14.83;7.30;;;10.10;99.90;;;;;;5047343;28;38053;-74
2023/10/25 04:56:23;;;;;;;12.05;7.60;;;10.10;99.90;;;;;;5051832;28;38138;-76
2023/10/25 04:58:49;;;;;;;9.90;7.40;;;10.10;99.90;;;;;;5045705;28;37816;-75
2023/10/25 05:01:15;;;;;;;11.70;6.90;;;10.10;99.90;;;;;;5039068;28;37301;-76
2023/10/25 05:03:43;;;;;;;10.10;6.13;;;10.10;99.90;;;;;;5046410;28;38648;-76
2023/10/25 05:06:10;;;;;;;8.77;5.23;;;10.10;99.90;;;;;;5051989;28;38682;-76
2023/10/25 05:08:36;;;;;;;9.97;6.73;;;10.10;99.90;;;;;;5048282;28;39579;-76
2023/10/25 05:11:06;;;;;;;9.87;5.47;;;10.10;99.90;;;;;;5040607;28;35963;-75
2023/10/25 05:13:33;;;;;;;8.97;5.33;;;10.10;99.90;;;;;;5040545;28;37617;-75
2023/10/25 05:16:00;;;;;;;8.90;5.43;;;10.10;99.90;;;;;;5040668;28;39067;-75
2023/10/25 05:18:27;;;;;;;8.63;4.93;;;10.10;99.90;;;;;;5037435;28;37410;-75
2023/10/25 05:21:01;;;;;;;10.50;5.93;;;10.10;99.90;;;;;;5047871;28;35842;-75
2023/10/25 05:23:31;;;;;;;14.17;4.93;;;10.20;99.90;;;;;;5037472;28;44556;-76
2023/10/25 05:26:03;;;;;;;9.60;4.90;;;10.20;99.90;;;;;;5051508;28;37897;-76
2023/10/25 05:28:33;;;;;;;9.17;4.90;;;10.20;99.90;;;;;;5054622;28;47142;-75
2023/10/25 05:31:02;;;;;;;10.17;5.00;;;10.30;99.90;;;;;;5058247;28;38919;-76
2023/10/25 05:33:31;;;;;;;6.67;4.77;;;10.30;99.90;;;;;;5043659;28;45941;-76
2023/10/25 05:35:59;;;;;;;9.10;4.60;;;10.30;99.90;;;;;;5044536;28;38513;-75
2023/10/25 05:38:26;;;;;;;10.10;4.67;;;10.30;99.90;;;;;;5048259;28;37430;-75
2023/10/25 05:40:53;;;;;;;9.80;4.97;;;10.30;99.90;;;;;;5055663;28;36392;-76
2023/10/25 05:43:26;;;;;;;7.20;4.77;;;10.30;99.90;;;;;;5043671;28;38083;-77
2023/10/25 05:45:52;;;;;;;10.02;5.03;;;10.40;99.90;;;;;;5050000;28;38727;-75
2023/10/25 05:48:18;;;;;;;12.27;5.90;;;10.40;99.90;;;;;;5045069;28;37939;-77
2023/10/25 05:50:48;;;;;;;8.20;5.33;;;10.50;99.90;;;;;;5035754;28;36586;-76
2023/10/25 05:53:15;;;;;;;10.03;5.47;;;10.40;99.90;;;;;;5035260;28;38390;-76
2023/10/25 05:55:41;;;;;;;8.37;4.97;;;10.40;99.90;;;;;;5037425;28;37958;-76
2023/10/25 05:58:08;;;;;;;8.02;4.95;;;10.40;99.90;;;;;;5039047;28;36357;-76
2023/10/25 06:00:34;;;;;;;8.82;4.95;;;10.40;99.90;;;;;;5042114;28;39357;-76
2023/10/25 06:03:01;;;;;;;8.53;4.97;;;10.30;99.90;;;;;;5034654;28;37719;-77
2023/10/25 06:05:34;;;;;;;12.93;5.18;;;10.30;99.90;;;;;;5038324;28;46958;-77
2023/10/25 06:08:00;;;;;;;10.52;5.13;;;10.30;99.90;;;;;;5037210;28;37702;-77
2023/10/25 06:10:26;;;;;;;12.03;6.60;;;10.40;99.90;;;;;;5043493;28;37239;-76
2023/10/25 06:12:53;;;;;;;9.40;5.68;;;10.40;99.90;;;;;;5044289;28;39120;-76
2023/10/25 06:15:19;;;;;;;10.27;6.82;;;10.40;99.90;;;;;;5037539;28;40010;-77
2023/10/25 06:17:45;;;;;;;10.73;6.23;;;10.30;99.90;;;;;;5033299;28;37400;-76
2023/10/25 06:20:13;;;;;;;11.63;6.40;;;10.40;99.90;;;;;;5035880;28;36563;-77
2023/10/25 06:22:39;;;;;;;14.57;6.27;;;10.30;99.90;;;;;;5037834;28;39445;-76
2023/10/25 06:25:09;;;;;;;10.23;6.67;;;10.30;99.90;;;;;;5039120;28;37218;-76
2023/10/25 06:27:35;;;;;;;11.93;6.93;;;10.40;99.90;;;;;;5038118;28;38903;-76
2023/10/25 06:30:01;;;;;;;10.73;6.57;;;10.30;99.90;;;;;;5048002;28;36622;-76
2023/10/25 06:32:28;;;;;;;9.77;5.70;;;10.40;99.90;;;;;;5041604;28;38870;-76
2023/10/25 06:34:54;;;;;;;11.33;5.87;;;10.40;99.90;;;;;;5038615;28;37678;-76
2023/10/25 06:37:20;;;;;;;18.90;6.37;;;10.40;99.90;;;;;;5035290;28;39854;-76
2023/10/25 06:39:46;;;;;;;10.43;5.67;;;10.40;99.90;;;;;;5034742;28;41230;-76
2023/10/25 06:42:13;;;;;;;12.53;6.40;;;10.40;99.90;;;;;;5042296;28;37495;-77
2023/10/25 06:44:40;;;;;;;12.10;6.33;;;10.40;99.90;;;;;;5042359;28;39896;-78
2023/10/25 06:47:08;;;;;;;11.07;5.10;;;10.40;99.90;;;;;;5056744;28;38214;-78
2023/10/25 06:49:35;;;;;;;8.53;4.83;;;10.40;99.90;;;;;;5043509;28;38630;-77
2023/10/25 06:52:02;;;;;;;10.67;4.87;;;10.30;99.90;;;;;;5041432;28;38118;-77
2023/10/25 06:54:28;;;;;;;7.97;4.50;;;10.30;99.90;;;;;;5042700;28;37419;-78
2023/10/25 06:56:55;;;;;;;7.57;4.40;;;10.30;99.90;;;;;;5037400;28;37540;-78
2023/10/25 06:59:21;;;;;;;8.23;4.17;;;10.30;99.90;;;;;;5034881;28;36160;-78
2023/10/25 07:01:52;;;;;;;8.98;4.53;;;10.30;99.90;;;;;;5033423;28;40008;-77
2023/10/25 07:04:19;;;;;;;9.17;4.70;;;10.30;99.90;;;;;;5042297;28;39349;-77
2023/10/25 07:06:46;;;;;;;8.77;4.35;;;10.30;99.90;;;;;;5041755;28;37652;-77
2023/10/25 07:09:14;;;;;;;7.70;4.60;;;10.40;99.90;;;;;;5040743;28;36358;-77
2023/10/25 07:11:40;;;;;;;9.47;4.87;;;10.40;99.90;;;;;;5038121;28;38502;-78
2023/10/25 07:14:06;;;;;;;8.13;4.30;;;10.40;99.90;;;;;;5036318;28;38177;-77
2023/10/25 07:16:32;;;;;;;8.23;4.70;;;10.40;99.90;;;;;;5033786;28;38466;-77
2023/10/25 07:18:58;;;;;;;10.60;5.00;;;10.40;99.90;;;;;;5041433;28;37485;-77
2023/10/25 07:21:25;;;;;;;9.80;5.73;;;10.40;99.90;;;;;;5031280;28;37587;-77
2023/10/25 07:23:53;;;;;;;10.63;5.17;;;10.40;99.90;;;;;;5032385;28;38715;-77
2023/10/25 07:26:19;;;;;;;12.10;5.20;;;10.40;99.90;;;;;;5033195;28;38384;-76
2023/10/25 07:28:45;;;;;;;8.80;5.60;;;10.40;99.90;;;;;;5034895;28;37157;-79
2023/10/25 07:31:11;;;;;;;11.80;5.80;;;10.50;99.90;;;;;;5033848;28;38075;-78
2023/10/25 07:33:38;;;;;;;10.87;6.10;;;10.50;99.90;;;;;;5038119;28;38103;-78
2023/10/25 07:36:04;;;;;;;10.10;5.90;;;10.50;99.90;;;;;;5033973;28;37423;-79
2023/10/25 07:38:30;;;;;;;10.80;6.20;;;10.50;99.90;;;;;;5040467;28;36224;-78
2023/10/25 07:40:56;;;;;;;11.02;7.05;;;10.50;99.90;;;;;;5038373;28;39307;-78
2023/10/25 07:43:25;;;;;;;11.47;7.03;;;10.50;99.90;;;;;;5037970;28;38755;-78
2023/10/25 07:45:51;;;;;;;12.95;6.70;;;10.50;99.90;;;;;;5036944;28;38501;-78
2023/10/25 07:48:20;;;;;;;11.70;6.83;;;10.50;99.90;;;;;;5036777;28;37604;-78
2023/10/25 07:50:46;;;;;;;12.47;6.50;;;10.50;99.90;;;;;;5034605;28;37801;-78
2023/10/25 07:53:12;;;;;;;13.50;6.53;;;10.60;99.90;;;;;;5037250;28;38707;-78
2023/10/25 07:55:45;;;;;;;11.27;6.68;;;10.50;99.90;;;;;;5041713;28;38731;-79
2023/10/25 07:58:11;;;;;;;10.93;6.60;;;10.60;99.90;;;;;;5033985;28;36085;-78
2023/10/25 08:00:37;;;;;;;11.10;7.57;;;10.60;99.90;;;;;;5031841;28;38062;-79
2023/10/25 08:03:04;;;;;;;11.48;6.93;;;10.70;99.90;;;;;;4993931;28;1202847;-78
2023/10/25 08:05:30;;;;;;;11.13;7.07;;;10.70;99.90;;;;;;5036218;28;39024;-79
2023/10/25 08:07:56;;;;;;;12.60;7.20;;;10.70;99.90;;;;;;5035466;28;35031;-78
2023/10/25 08:10:23;;;;;;;7.95;5.95;;;10.70;99.90;;;;;;5039840;28;38505;-78
2023/10/25 08:12:49;;;;;;;12.40;5.97;;;10.70;99.90;;;;;;5035604;28;39314;-79
2023/10/25 08:15:16;;;;;;;8.88;6.35;;;10.70;99.90;;;;;;5037098;28;38839;-79
2023/10/25 08:17:43;;;;;;;8.75;6.28;;;10.80;99.90;;;;;;5045214;28;36953;-78
2023/10/25 08:20:10;;;;;;;7.47;6.30;;;10.80;99.90;;;;;;5041221;28;39413;-78
2023/10/25 08:22:36;;;;;;;9.48;6.22;;;10.80;99.90;;;;;;5038648;28;37489;-78
2023/10/25 08:25:08;;;;;;;9.85;5.80;;;10.90;99.90;;;;;;5047458;28;39163;-79
2023/10/25 08:27:36;;;;;;;10.95;6.40;;;10.90;99.90;;;;;;5039248;28;47063;-79
2023/10/25 08:30:03;;;;;;;9.23;5.93;;;10.90;99.90;;;;;;5045366;28;39082;-78
2023/10/25 08:32:29;;;;;;;13.30;7.07;;;10.90;99.90;;;;;;5042809;28;39117;-77
2023/10/25 08:34:55;;;;;;;8.50;5.93;;;10.90;99.90;;;;;;5038545;28;37143;-79
2023/10/25 08:37:21;;;;;;;11.15;6.03;;;10.90;99.90;;;;;;5041054;28;38204;-78
2023/10/25 08:39:47;;;;;;;12.00;6.68;;;10.90;99.90;;;;;;5039062;28;39670;-78
2023/10/25 08:42:14;;;;;;;7.72;6.45;;;10.90;99.90;;;;;;5040582;28;38529;-79
2023/10/25 08:44:45;;;;;;;12.10;6.93;;;10.90;99.90;;;;;;5040866;28;37331;-78
2023/10/25 08:47:12;;;;;;;9.20;6.28;;;10.90;99.90;;;;;;5035155;28;37806;-78
2023/10/25 08:49:38;;;;;;;15.57;7.20;;;10.90;99.90;;;;;;5036169;28;38699;-78
2023/10/25 08:52:05;;;;;;;12.15;6.75;;;10.90;99.90;;;;;;5035040;28;38674;-78
2023/10/25 08:54:31;;;;;;;9.50;7.55;;;10.90;99.90;;;;;;5031301;28;37527;-78
2023/10/25 08:56:57;;;;;;;18.83;6.60;;;11.00;99.90;;;;;;5035568;28;37243;-78
2023/10/25 08:59:24;;;;;;;9.77;5.85;;;11.00;99.90;;;;;;5035985;28;39557;-77
2023/10/25 09:01:50;;;;;;;9.43;5.40;;;11.00;99.90;;;;;;5032491;28;39333;-78
2023/10/25 09:04:16;;;;;;;10.43;7.20;;;11.00;99.90;;;;;;5035427;28;37924;-78
2023/10/25 09:06:43;;;;;;;10.00;6.03;;;11.00;99.90;;;;;;5033242;28;40937;-78
2023/10/25 09:09:09;;;;;;;7.65;5.88;;;11.10;99.90;;;;;;5035822;28;38648;-78
2023/10/25 09:11:40;;;;;;;15.57;7.15;;;11.00;99.90;;;;;;5036906;28;38661;-78
2023/10/25 09:14:07;;;;;;;11.25;7.38;;;11.10;99.90;;;;;;5033344;28;37115;-78
2023/10/25 09:16:34;;;;;;;14.17;6.73;;;11.10;99.90;;;;;;5035925;28;35875;-78
2023/10/25 09:19:03;;;;;;;6.97;4.83;;;11.10;99.90;;;;;;5021472;28;37790;-78
2023/10/25 09:21:30;;;;;;;11.30;6.53;;;11.00;99.90;;;;;;5038175;28;46833;-78
2023/10/25 09:23:59;;;;;;;20.77;8.50;;;11.00;99.90;;;;;;5042289;28;38982;-78
2023/10/25 09:26:31;;;;;;;11.70;6.60;;;11.10;99.90;;;;;;5042770;28;37549;-78
2023/10/25 09:28:57;;;;;;;11.77;6.20;;;11.10;99.90;;;;;;5044541;28;39127;-78
2023/10/25 09:31:28;;;;;;;12.73;5.93;;;11.10;99.90;;;;;;5044516;28;39677;-78
2023/10/25 09:33:58;;;;;;;12.98;6.88;;;11.10;99.90;;;;;;5041403;28;38826;-78
2023/10/25 09:36:26;;;;;;;13.80;8.13;;;11.10;99.90;;;;;;5040510;28;38024;-78
2023/10/25 09:38:53;;;;;;;11.63;6.43;;;11.10;99.90;;;;;;5044208;28;38473;-78
2023/10/25 09:41:20;;;;;;;14.53;7.47;;;11.10;99.90;;;;;;5043512;28;39610;-78
2023/10/25 09:43:50;;;;;;;7.88;5.53;;;11.10;99.90;;;;;;5034663;28;37405;-79
2023/10/25 09:46:21;;;;;;;12.70;7.03;;;11.10;99.90;;;;;;5038140;28;36725;-78
2023/10/25 09:48:55;;;;;;;12.20;6.03;;;11.20;99.90;;;;;;5035844;28;38552;-78
2023/10/25 09:51:59;;;;;;;15.70;6.17;;;11.20;99.90;;;;;;5038780;28;39134;-78
2023/10/25 09:54:32;;;;;;;9.80;6.63;;;11.20;99.90;;;;;;5031159;28;38478;-78
2023/10/25 09:56:59;;;;;;;14.85;6.95;;;11.20;99.90;;;;;;5043202;28;36757;-78
2023/10/25 09:59:28;;;;;;;19.55;8.88;;;11.30;99.90;;;;;;5034990;28;38718;-78
2023/10/25 10:01:55;;;;;;;18.80;10.13;;;11.30;99.90;;;;;;5034242;28;38430;-78
2023/10/25 10:04:26;;;;;;;14.95;7.55;;;11.30;99.90;;;;;;5033502;28;37749;-78
2023/10/25 10:07:12;;;;;;;17.77;9.32;;;11.30;99.90;;;;;;5038131;28;37364;-78
2023/10/25 10:10:01;;;;;;;15.37;8.17;;;11.40;99.90;;;;;;5034041;28;47320;-78
2023/10/25 10:12:27;;;;;;;16.93;8.67;;;11.40;99.90;;;;;;5037255;28;37520;-78
2023/10/25 10:14:53;;;;;;;12.63;8.27;;;11.40;99.90;;;;;;5045058;28;36923;-78
2023/10/25 10:17:19;;;;;;;16.30;8.20;;;11.40;99.90;;;;;;5041308;28;35294;-78
2023/10/25 10:19:48;;;;;;;11.83;8.57;;;11.30;99.90;;;;;;5034191;28;38297;-78
2023/10/25 10:22:14;;;;;;;41.00;27.77;;;11.30;99.90;;;;;;5037410;28;38073;-79
2023/10/25 10:25:04;;;;;;;31.13;21.48;;;11.30;99.90;;;;;;5035955;28;37468;-77
2023/10/25 10:28:00;;;;;;;16.43;13.90;;;11.30;99.90;;;;;;5031673;28;47515;-77
2023/10/25 10:30:29;;;;;;;19.47;13.40;;;11.30;99.90;;;;;;5036195;28;40812;-78
2023/10/25 10:32:56;;;;;;;16.90;10.90;;;11.30;99.90;;;;;;5034564;28;38888;-77
2023/10/25 10:35:23;;;;;;;17.75;10.02;;;11.30;99.90;;;;;;5035070;28;37579;-77
2023/10/25 10:37:59;;;;;;;16.17;11.27;;;11.20;99.90;;;;;;5036729;28;37269;-77
2023/10/25 10:40:26;;;;;;;14.88;10.02;;;11.20;99.90;;;;;;5030698;28;38144;-77
2023/10/25 10:42:52;;;;;;;11.15;8.75;;;11.20;99.90;;;;;;5044305;28;37661;-78
2023/10/25 10:45:19;;;;;;;15.53;10.60;;;11.20;99.90;;;;;;5035545;28;38088;-78
2023/10/25 10:48:04;;;;;;;12.38;9.15;;;11.20;99.90;;;;;;5038546;28;36047;-79
2023/10/25 10:50:30;;;;;;;14.75;9.27;;;11.20;99.90;;;;;;5038773;28;47478;-78
2023/10/25 10:52:57;;;;;;;13.65;9.05;;;11.20;99.90;;;;;;5046627;28;37814;-78
2023/10/25 10:55:25;;;;;;;13.25;9.50;;;11.20;99.90;;;;;;5041332;28;39078;-79
2023/10/25 10:57:52;;;;;;;14.55;8.68;;;11.20;99.90;;;;;;5038211;28;35623;-78
2023/10/25 11:00:18;;;;;;;12.48;8.50;;;11.30;99.90;;;;;;5038198;28;39408;-78
2023/10/25 11:02:46;;;;;;;18.38;10.82;;;11.30;99.90;;;;;;5049698;28;38469;-79
2023/10/25 11:05:14;;;;;;;19.13;10.93;;;11.30;99.90;;;;;;5040055;28;38061;-79
2023/10/25 11:07:41;;;;;;;15.52;10.45;;;11.40;99.90;;;;;;5038363;28;38664;-79
2023/10/25 11:10:08;;;;;;;16.35;11.75;;;11.40;99.90;;;;;;5038321;28;38104;-80
2023/10/25 11:12:37;;;;;;;13.40;9.07;;;11.40;99.90;;;;;;5042754;28;39004;-79
2023/10/25 11:15:05;;;;;;;17.38;12.05;;;11.40;99.90;;;;;;5056998;28;36888;-79
2023/10/25 11:17:33;;;;;;;23.75;12.32;;;11.40;99.90;;;;;;5037980;28;47248;-78
2023/10/25 11:20:00;;;;;;;20.65;13.48;;;11.40;99.90;;;;;;5044589;28;38477;-77
2023/10/25 11:22:30;;;;;;;18.85;13.27;;;11.50;99.90;;;;;;5035980;28;37620;-79
2023/10/25 11:24:58;;;;;;;16.90;12.10;;;11.50;99.90;;;;;;5033538;28;38503;-79
2023/10/25 11:27:31;;;;;;;19.67;13.35;;;11.50;99.90;;;;;;5047656;28;36154;-79
2023/10/25 11:29:58;;;;;;;19.05;14.05;;;11.50;99.90;;;;;;5029626;28;39279;-78
2023/10/25 11:32:24;;;;;;;21.27;13.43;;;11.50;99.90;;;;;;5033415;28;39333;-78
2023/10/25 11:34:56;;;;;;;15.07;12.93;;;11.50;99.90;;;;;;5036134;28;37936;-78
2023/10/25 11:37:22;;;;;;;17.00;11.77;;;11.50;99.90;;;;;;5034916;28;37402;-79
2023/10/25 11:39:55;;;;;;;16.77;13.18;;;11.50;99.90;;;;;;5039240;28;37641;-78
2023/10/25 11:42:24;;;;;;;13.90;10.95;;;11.50;99.90;;;;;;5038734;28;38708;-79
2023/10/25 11:44:51;;;;;;;14.07;11.57;;;11.50;99.90;;;;;;5033619;28;37535;-78
2023/10/25 11:47:21;;;;;;;19.60;13.10;;;11.50;99.90;;;;;;5033983;28;35981;-79
2023/10/25 11:49:52;;;;;;;15.57;12.55;;;11.40;99.90;;;;;;5039403;28;39404;-78
2023/10/25 11:52:22;;;;;;;16.13;12.18;;;11.40;99.90;;;;;;5036621;28;39616;-79
2023/10/25 11:54:58;;;;;;;18.48;12.95;;;11.40;99.90;;;;;;5034781;28;36511;-77
2023/10/25 11:57:29;;;;;;;17.83;13.20;;;11.40;99.90;;;;;;5039091;28;36539;-79
2023/10/25 11:59:55;;;;;;;23.65;11.68;;;11.40;99.90;;;;;;5040680;28;38685;-78
2023/10/25 12:02:24;;;;;;;15.43;12.52;;;11.50;99.90;;;;;;5040742;28;38915;-79
2023/10/25 12:04:54;;;;;;;18.13;13.60;;;11.50;99.90;;;;;;5037116;28;40414;-79
2023/10/25 12:07:21;;;;;;;19.30;13.40;;;11.50;99.90;;;;;;5042199;28;37966;-79
2023/10/25 12:09:52;;;;;;;19.10;12.68;;;11.50;99.90;;;;;;5041947;28;37362;-79
2023/10/25 12:12:18;;;;;;;19.67;13.00;;;11.50;99.90;;;;;;5043983;28;40492;-79
2023/10/25 12:14:45;;;;;;;16.10;10.27;;;11.50;99.90;;;;;;5043202;28;37093;-77
2023/10/25 12:17:11;;;;;;;16.63;10.98;;;11.50;99.90;;;;;;5044287;28;38480;-78
2023/10/25 12:19:39;;;;;;;15.52;11.80;;;11.60;99.90;;;;;;5045079;28;37473;-77
2023/10/25 12:22:10;;;;;;;14.98;11.55;;;11.60;99.90;;;;;;5045194;28;39037;-77
2023/10/25 12:24:37;;;;;;;15.63;10.75;;;11.60;99.90;;;;;;5043194;28;38289;-78
2023/10/25 12:27:04;;;;;;;14.85;10.20;;;11.70;99.90;;;;;;5039013;28;36951;-78
2023/10/25 12:29:31;;;;;;;15.13;10.13;;;11.70;99.90;;;;;;5037336;28;38573;-77
2023/10/25 12:31:57;;;;;;;12.27;7.80;;;11.70;99.90;;;;;;5036622;28;38896;-77
2023/10/25 12:34:24;;;;;;;12.88;8.38;;;11.70;99.90;;;;;;5032331;28;38943;-77
2023/10/25 12:36:51;;;;;;;14.20;7.80;;;11.70;99.90;;;;;;5036795;28;36191;-80
2023/10/25 12:39:17;;;;;;;14.00;8.75;;;11.70;99.90;;;;;;5038554;28;38591;-78
2023/10/25 12:41:47;;;;;;;10.57;8.20;;;11.60;99.90;;;;;;5039689;28;40317;-79